KAOO

Altoona-Blair County Airport

Altoona, Pennsylvania, USA
METAR KAOO 150053Z AUTO 22009KT 9SM FEW035 BKN080 OVC100 21/18 A3000 RMK AO2 RAE52 SLP153 P0021 T02060183
Observed Flight Rules
Aug-15 @ 00:53 UTC (11 minutes ago) Visual Flight Rules
Wind Visibility Clouds
220° at 9 knots 9 miles
  • Few at 3,500' AGL
  • Broken at 8,000' AGL
  • Overcast at 10,000' AGL
Temperatures Readings Precipitation
Current 21°C / 70°F
Dewpoint 18°C / 64°F
Humidity 83%
Altimeter 30" Hg
Pressure 1015.3 hPa
Elevation 455
Current Rain 0.21
METAR KAOO 150053Z AUTO 22009KT 9SM FEW035 BKN080 OVC100 21/18 A3000 RMK AO2 RAE52 SLP153 P0021 T02060183
Observed Flight Rules
Aug-15 @ 00:53 UTC
(11 minutes ago)
VFR
Wind Visibility
220° at 9 knots 9 miles
Clouds
  • Few at 3,500' AGL
  • Broken at 8,000' AGL
  • Overcast at 10,000' AGL
Temperature Dewpoint
21°C / 70°F 18°C / 64°F
Humidity Altimeter Pressure
83% 30" Hg 1015.3 hPa
Current Rain
0.21